createdAt,value
2022-11-09T00:00:19.727Z,3
2022-11-09T00:02:03.434Z,2
2022-11-09T00:03:47.136Z,9
2022-11-09T00:05:30.841Z,9
2022-11-09T00:07:14.555Z,8
2022-11-09T00:08:58.244Z,2
2022-11-09T00:10:41.943Z,1
2022-11-09T00:12:25.642Z,2
2022-11-09T00:14:09.358Z,2
2022-11-09T00:15:53.053Z,2
2022-11-09T00:17:36.753Z,2
2022-11-09T00:19:20.456Z,2
2022-11-09T00:21:04.157Z,2
2022-11-09T00:22:47.858Z,2
2022-11-09T00:24:31.583Z,2
2022-11-09T00:26:15.265Z,3
2022-11-09T00:27:58.966Z,2
2022-11-09T00:29:42.670Z,2
2022-11-09T00:31:26.376Z,1
2022-11-09T00:33:10.078Z,2
2022-11-09T00:34:53.779Z,3
2022-11-09T00:36:37.485Z,2
2022-11-09T00:38:21.189Z,2
2022-11-09T00:40:04.889Z,2
2022-11-09T00:41:48.587Z,2
2022-11-09T00:43:32.295Z,2
2022-11-09T00:45:15.995Z,2
2022-11-09T00:46:59.709Z,2
2022-11-09T00:48:43.396Z,2
2022-11-09T00:50:27.106Z,2
2022-11-09T00:52:10.803Z,2
2022-11-09T00:55:38.214Z,1
2022-11-09T00:57:21.915Z,2
2022-11-09T00:59:05.615Z,2
2022-11-09T01:00:49.313Z,1
2022-11-09T01:02:33.020Z,2
2022-11-09T01:04:16.725Z,2
2022-11-09T01:06:00.429Z,3
2022-11-09T01:07:44.128Z,2
2022-11-09T01:09:27.830Z,2
2022-11-09T01:11:11.535Z,2
2022-11-09T01:12:55.247Z,2
2022-11-09T01:14:38.935Z,3
2022-11-09T01:16:22.641Z,3
2022-11-09T01:18:06.358Z,3
2022-11-09T01:19:50.066Z,2
2022-11-09T01:21:33.741Z,2
2022-11-09T01:23:17.452Z,2
2022-11-09T01:25:01.168Z,2
2022-11-09T01:26:44.850Z,2
2022-11-09T01:28:28.566Z,2
2022-11-09T01:30:12.261Z,2
2022-11-09T01:31:55.958Z,2
2022-11-09T01:35:23.360Z,2
2022-11-09T01:37:07.069Z,2
2022-11-09T01:38:50.773Z,2
2022-11-09T01:40:34.467Z,3
2022-11-09T01:42:18.180Z,2
2022-11-09T01:44:01.878Z,2
2022-11-09T01:45:45.572Z,2
2022-11-09T01:47:29.276Z,2
2022-11-09T01:49:12.989Z,2
2022-11-09T01:50:56.685Z,2
2022-11-09T01:52:40.398Z,2
2022-11-09T01:54:24.085Z,2
2022-11-09T01:56:07.791Z,2
2022-11-09T01:57:51.500Z,1
2022-11-09T01:59:35.213Z,1
2022-11-09T02:01:18.906Z,2
2022-11-09T02:03:02.614Z,2
2022-11-09T02:04:46.346Z,1
2022-11-09T02:06:30.035Z,2
2022-11-09T02:08:13.717Z,2
2022-11-09T02:09:57.455Z,1
2022-11-09T02:11:41.118Z,2
2022-11-09T02:13:24.825Z,2
2022-11-09T02:15:08.528Z,2
2022-11-09T02:16:52.260Z,1
2022-11-09T02:18:35.928Z,2
2022-11-09T02:20:19.646Z,2
2022-11-09T02:22:03.334Z,1
2022-11-09T02:23:47.047Z,1
2022-11-09T02:25:30.743Z,3
2022-11-09T02:27:14.463Z,2
2022-11-09T02:28:58.150Z,2
2022-11-09T02:30:41.857Z,2
2022-11-09T02:32:25.556Z,2
2022-11-09T02:34:09.259Z,2
2022-11-09T02:35:52.955Z,1
2022-11-09T02:37:36.658Z,1
2022-11-09T02:39:20.371Z,2
2022-11-09T02:41:04.071Z,1
2022-11-09T02:42:47.765Z,2
2022-11-09T02:44:31.465Z,2
2022-11-09T02:46:15.174Z,2
2022-11-09T02:47:58.875Z,2
2022-11-09T02:49:42.582Z,2
2022-11-09T02:51:26.275Z,2
2022-11-09T02:53:09.977Z,2
2022-11-09T02:54:53.696Z,2
2022-11-09T02:56:37.384Z,3
2022-11-09T02:58:21.117Z,2
2022-11-09T03:00:04.794Z,2
2022-11-09T03:01:48.491Z,2
2022-11-09T03:03:32.206Z,2
2022-11-09T03:05:15.904Z,1
2022-11-09T03:06:59.608Z,2
2022-11-09T03:08:43.310Z,2
2022-11-09T03:10:27.001Z,2
2022-11-09T03:12:10.708Z,1
2022-11-09T03:13:54.416Z,1
2022-11-09T03:15:38.133Z,3
2022-11-09T03:17:21.822Z,2
2022-11-09T03:19:05.526Z,3
2022-11-09T03:20:49.224Z,1
2022-11-09T03:22:32.930Z,2
2022-11-09T03:24:16.624Z,1
2022-11-09T03:26:00.336Z,2
2022-11-09T03:27:44.044Z,2
2022-11-09T03:29:27.734Z,2
2022-11-09T03:31:11.441Z,2
2022-11-09T03:32:55.149Z,2
2022-11-09T03:34:38.864Z,2
2022-11-09T03:36:22.554Z,2
2022-11-09T03:38:06.252Z,2
2022-11-09T03:39:49.951Z,2
2022-11-09T03:41:33.680Z,2
2022-11-09T03:43:17.354Z,2
2022-11-09T03:45:01.078Z,2
2022-11-09T03:46:44.757Z,2
2022-11-09T03:48:28.460Z,3
2022-11-09T03:50:12.169Z,2
2022-11-09T03:51:55.874Z,1
2022-11-09T03:53:39.567Z,1
2022-11-09T03:55:23.273Z,1
2022-11-09T03:57:06.969Z,0
2022-11-09T03:58:50.671Z,2
2022-11-09T04:00:34.386Z,1
2022-11-09T04:02:18.084Z,1
2022-11-09T04:04:01.792Z,1
2022-11-09T04:05:45.477Z,2
2022-11-09T04:07:29.195Z,2
2022-11-09T04:09:12.902Z,1
2022-11-09T04:10:56.595Z,1
2022-11-09T04:12:40.300Z,2
2022-11-09T04:14:24.023Z,1
2022-11-09T04:16:07.703Z,1
2022-11-09T04:17:51.403Z,1
2022-11-09T04:19:35.114Z,1
2022-11-09T04:21:18.829Z,2
2022-11-09T04:23:02.515Z,1
2022-11-09T04:24:46.217Z,1
2022-11-09T04:26:29.922Z,1
2022-11-09T04:28:13.628Z,2
2022-11-09T04:29:57.327Z,1
2022-11-09T04:31:41.029Z,1
2022-11-09T04:33:24.736Z,1
2022-11-09T04:35:08.435Z,1
2022-11-09T04:36:52.134Z,1
2022-11-09T04:38:35.866Z,1
2022-11-09T04:40:19.537Z,1
2022-11-09T04:42:03.239Z,1
2022-11-09T04:43:46.949Z,1
2022-11-09T04:45:30.648Z,1
2022-11-09T04:47:14.353Z,1
2022-11-09T04:48:58.050Z,1
2022-11-09T04:50:41.752Z,1
2022-11-09T04:52:25.456Z,1
2022-11-09T04:54:09.159Z,1
2022-11-09T04:55:52.857Z,2
2022-11-09T04:57:36.562Z,2
2022-11-09T04:59:20.271Z,1
2022-11-09T05:01:03.974Z,0
2022-11-09T05:02:47.677Z,1
2022-11-09T05:04:31.378Z,1
2022-11-09T05:06:15.076Z,2
2022-11-09T05:07:58.779Z,2
2022-11-09T05:09:42.488Z,2
2022-11-09T05:11:26.177Z,1
2022-11-09T05:13:09.888Z,2
2022-11-09T05:14:53.613Z,1
2022-11-09T05:16:37.289Z,2
2022-11-09T05:18:20.997Z,1
2022-11-09T05:20:04.703Z,1
2022-11-09T05:21:48.402Z,1
2022-11-09T05:23:32.108Z,1
2022-11-09T05:25:15.819Z,2
2022-11-09T05:26:59.513Z,1
2022-11-09T05:28:43.217Z,1
2022-11-09T05:30:26.941Z,1
2022-11-09T05:32:10.624Z,1
2022-11-09T05:33:54.340Z,1
2022-11-09T05:35:38.022Z,1
2022-11-09T05:37:21.730Z,1
2022-11-09T05:39:05.434Z,1
2022-11-09T05:40:49.136Z,1
2022-11-09T05:42:32.838Z,1
2022-11-09T05:44:16.546Z,1
2022-11-09T05:46:00.255Z,1
2022-11-09T05:47:43.948Z,1
2022-11-09T05:49:27.647Z,1
2022-11-09T05:51:11.352Z,1
2022-11-09T05:52:55.061Z,1
2022-11-09T05:54:38.758Z,1
2022-11-09T05:56:22.457Z,1
2022-11-09T05:58:06.166Z,1
2022-11-09T05:59:49.861Z,2
2022-11-09T06:01:33.570Z,2
2022-11-09T06:03:17.331Z,2
2022-11-09T06:05:00.969Z,2
2022-11-09T06:06:44.680Z,2
2022-11-09T06:08:28.376Z,2
2022-11-09T06:10:12.078Z,2
2022-11-09T06:11:55.784Z,2
2022-11-09T06:13:39.479Z,2
2022-11-09T06:15:23.189Z,4
2022-11-09T06:17:06.890Z,4
2022-11-09T06:18:50.587Z,5
2022-11-09T06:20:34.293Z,5
2022-11-09T06:22:17.995Z,5
2022-11-09T06:24:01.694Z,5
2022-11-09T06:25:45.399Z,6
2022-11-09T06:27:29.120Z,8
2022-11-09T06:29:12.811Z,11
2022-11-09T06:30:56.514Z,12
2022-11-09T06:32:40.208Z,13
2022-11-09T06:34:23.913Z,15
2022-11-09T06:36:07.611Z,16
2022-11-09T06:37:51.311Z,17
2022-11-09T06:39:35.022Z,16
2022-11-09T06:41:18.723Z,19
2022-11-09T06:43:02.427Z,23
2022-11-09T06:44:46.283Z,27
2022-11-09T06:46:29.830Z,32
2022-11-09T06:48:13.534Z,37
2022-11-09T06:49:57.235Z,38
2022-11-09T06:51:40.941Z,35
2022-11-09T06:53:24.641Z,32
2022-11-09T06:55:08.352Z,32
2022-11-09T06:56:52.038Z,33
2022-11-09T06:58:35.746Z,36
2022-11-09T07:00:19.447Z,39
2022-11-09T07:02:03.155Z,45
2022-11-09T07:03:46.861Z,51
2022-11-09T07:05:30.557Z,58
2022-11-09T07:07:14.261Z,67
2022-11-09T07:08:57.963Z,73
2022-11-09T07:10:41.668Z,79
2022-11-09T07:12:25.360Z,86
2022-11-09T07:14:09.073Z,90
2022-11-09T07:15:52.772Z,86
2022-11-09T07:17:36.482Z,79
2022-11-09T07:19:20.175Z,66
2022-11-09T07:21:03.877Z,51
2022-11-09T07:22:47.584Z,43
2022-11-09T07:24:31.291Z,44
2022-11-09T07:26:14.984Z,53
2022-11-09T07:27:58.687Z,69
2022-11-09T07:29:42.388Z,83
2022-11-09T07:31:26.087Z,83
2022-11-09T07:33:09.787Z,80
2022-11-09T07:34:53.495Z,73
2022-11-09T07:36:37.205Z,76
2022-11-09T07:38:20.904Z,98
2022-11-09T07:40:04.609Z,123
2022-11-09T07:41:48.313Z,140
2022-11-09T07:43:32.005Z,153
2022-11-09T07:45:15.728Z,174
2022-11-09T07:46:59.406Z,203
2022-11-09T07:48:43.114Z,228
2022-11-09T07:50:26.829Z,247
2022-11-09T07:52:10.518Z,263
2022-11-09T07:53:54.224Z,265
2022-11-09T07:55:37.926Z,267
2022-11-09T07:57:21.628Z,273
2022-11-09T07:59:05.358Z,283
2022-11-09T08:00:49.043Z,296
2022-11-09T08:02:32.744Z,287
2022-11-09T08:04:16.446Z,259
2022-11-09T08:06:00.142Z,230
2022-11-09T08:07:43.847Z,220
2022-11-09T08:09:27.553Z,219
2022-11-09T08:11:11.255Z,214
2022-11-09T08:12:54.974Z,213
2022-11-09T08:14:38.662Z,226
2022-11-09T08:16:22.367Z,246
2022-11-09T08:18:06.074Z,264
2022-11-09T08:19:49.778Z,278
2022-11-09T08:21:33.483Z,283
2022-11-09T08:23:17.177Z,282
2022-11-09T08:25:00.873Z,282
2022-11-09T08:26:44.574Z,292
2022-11-09T08:28:28.285Z,311
2022-11-09T08:30:11.981Z,338
2022-11-09T08:31:55.687Z,360
2022-11-09T08:33:39.391Z,371
2022-11-09T08:35:23.093Z,385
2022-11-09T08:37:06.821Z,390
2022-11-09T08:38:50.496Z,400
2022-11-09T08:40:34.199Z,428
2022-11-09T08:42:17.902Z,466
2022-11-09T08:44:01.607Z,506
2022-11-09T08:45:45.306Z,535
2022-11-09T08:47:29.006Z,550
2022-11-09T08:49:12.713Z,581
2022-11-09T08:50:56.418Z,632
2022-11-09T08:52:40.123Z,657
2022-11-09T08:54:23.817Z,606
2022-11-09T08:56:07.527Z,541
2022-11-09T08:57:51.220Z,509
2022-11-09T08:59:34.930Z,529
2022-11-09T09:01:18.633Z,570
2022-11-09T09:03:02.332Z,597
2022-11-09T09:04:46.044Z,599
2022-11-09T09:06:29.742Z,583
2022-11-09T09:08:13.454Z,533
2022-11-09T09:09:57.148Z,493
2022-11-09T09:11:40.849Z,462
2022-11-09T09:13:24.551Z,459
2022-11-09T09:15:08.260Z,475
2022-11-09T09:16:51.954Z,501
2022-11-09T09:18:35.657Z,542
2022-11-09T09:20:19.371Z,581
2022-11-09T09:22:03.066Z,592
2022-11-09T09:23:46.771Z,617
2022-11-09T09:25:30.469Z,661
2022-11-09T09:27:14.169Z,697
2022-11-09T09:28:57.875Z,728
2022-11-09T09:30:41.576Z,739
2022-11-09T09:32:25.287Z,739
2022-11-09T09:34:08.981Z,737
2022-11-09T09:35:52.691Z,738
2022-11-09T09:37:36.389Z,739
2022-11-09T09:39:20.089Z,739
2022-11-09T09:41:03.803Z,738
2022-11-09T09:44:31.195Z,739
2022-11-09T09:46:14.895Z,739
2022-11-09T09:47:58.606Z,729
2022-11-09T09:49:42.307Z,740
2022-11-09T09:51:26.006Z,739
2022-11-09T09:53:09.725Z,740
2022-11-09T09:54:53.412Z,739
2022-11-09T09:56:37.122Z,738
2022-11-09T09:58:20.817Z,739
2022-11-09T10:00:04.551Z,739
2022-11-09T10:01:48.229Z,739
2022-11-09T10:03:31.937Z,739
2022-11-09T10:05:15.626Z,738
2022-11-09T10:06:59.326Z,739
2022-11-09T10:08:43.032Z,739
2022-11-09T10:10:26.730Z,739
2022-11-09T10:12:10.421Z,738
2022-11-09T10:13:54.137Z,739
2022-11-09T10:15:37.839Z,739
2022-11-09T10:17:21.537Z,739
2022-11-09T10:19:05.241Z,738
2022-11-09T10:20:48.942Z,740
2022-11-09T10:22:32.650Z,739
2022-11-09T10:24:16.347Z,739
2022-11-09T10:26:00.068Z,738
2022-11-09T10:27:43.754Z,739
2022-11-09T10:29:27.464Z,739
2022-11-09T10:31:11.149Z,738
2022-11-09T10:32:54.860Z,738
2022-11-09T10:34:38.562Z,738
2022-11-09T10:36:22.280Z,739
2022-11-09T10:38:05.972Z,739
2022-11-09T10:39:49.677Z,739
2022-11-09T10:41:33.374Z,739
2022-11-09T10:43:17.091Z,740
2022-11-09T10:45:00.769Z,739
2022-11-09T10:46:44.486Z,738
2022-11-09T10:48:28.185Z,730
2022-11-09T10:50:11.887Z,739
2022-11-09T10:51:55.597Z,739
2022-11-09T10:53:39.286Z,738
2022-11-09T10:55:22.994Z,738
2022-11-09T10:57:06.707Z,739
2022-11-09T10:58:50.388Z,739
2022-11-09T11:00:34.100Z,739
2022-11-09T11:02:17.810Z,730
2022-11-09T11:04:01.508Z,740
2022-11-09T11:05:45.217Z,740
2022-11-09T11:07:28.931Z,739
2022-11-09T11:09:12.617Z,738
2022-11-09T11:10:56.319Z,739
2022-11-09T11:12:40.054Z,739
2022-11-09T11:14:23.714Z,738
2022-11-09T11:16:07.442Z,737
2022-11-09T11:17:51.127Z,739
2022-11-09T11:19:34.837Z,739
2022-11-09T11:21:18.518Z,739
2022-11-09T11:23:02.229Z,739
2022-11-09T11:24:45.940Z,739
2022-11-09T11:26:29.642Z,739
2022-11-09T11:28:13.337Z,739
2022-11-09T11:29:57.118Z,739
2022-11-09T11:31:40.743Z,740
2022-11-09T11:35:08.152Z,731
2022-11-09T11:36:51.849Z,738
2022-11-09T11:38:35.553Z,740
2022-11-09T11:40:19.249Z,735
2022-11-09T11:42:02.984Z,727
2022-11-09T11:43:46.667Z,729
2022-11-09T11:45:30.405Z,738
2022-11-09T11:47:14.067Z,739
2022-11-09T11:48:57.763Z,739
2022-11-09T11:50:41.464Z,739
2022-11-09T11:52:25.167Z,739
2022-11-09T11:54:08.868Z,739
2022-11-09T11:55:52.578Z,739
2022-11-09T11:57:36.282Z,739
2022-11-09T11:59:19.985Z,739
2022-11-09T12:01:03.691Z,739
2022-11-09T12:04:31.089Z,739
2022-11-09T12:06:14.787Z,739
2022-11-09T12:07:58.506Z,734
2022-11-09T12:09:42.214Z,740
2022-11-09T12:11:25.904Z,739
2022-11-09T12:13:09.598Z,740
2022-11-09T12:14:53.311Z,740
2022-11-09T12:16:37.015Z,739
2022-11-09T12:18:20.710Z,739
2022-11-09T12:20:04.414Z,739
2022-11-09T12:21:48.124Z,740
2022-11-09T12:23:31.811Z,740
2022-11-09T12:25:15.518Z,739
2022-11-09T12:26:59.221Z,739
2022-11-09T12:28:42.931Z,740
2022-11-09T12:30:26.633Z,739
2022-11-09T12:32:10.332Z,739
2022-11-09T12:33:54.052Z,738
2022-11-09T12:35:37.737Z,739
2022-11-09T12:37:21.439Z,740
2022-11-09T12:39:05.148Z,739
2022-11-09T12:40:48.846Z,730
2022-11-09T12:42:32.567Z,739
2022-11-09T12:44:16.256Z,739
2022-11-09T12:45:59.946Z,739
2022-11-09T12:47:43.681Z,739
2022-11-09T12:49:27.360Z,738
2022-11-09T12:51:11.058Z,739
2022-11-09T12:52:54.761Z,739
2022-11-09T12:54:38.467Z,737
2022-11-09T12:56:22.157Z,739
2022-11-09T12:58:05.860Z,740
2022-11-09T12:59:49.566Z,729
2022-11-09T13:01:33.278Z,696
2022-11-09T13:03:16.980Z,668
2022-11-09T13:05:00.673Z,640
2022-11-09T13:06:44.394Z,610
2022-11-09T13:08:28.087Z,583
2022-11-09T13:10:11.784Z,552
2022-11-09T13:11:55.594Z,526
2022-11-09T13:13:39.193Z,507
2022-11-09T13:15:22.899Z,492
2022-11-09T13:17:06.604Z,482
2022-11-09T13:18:50.297Z,476
2022-11-09T13:20:34.006Z,474
2022-11-09T13:22:17.705Z,473
2022-11-09T13:24:01.403Z,476
2022-11-09T13:25:45.110Z,478
2022-11-09T13:27:28.943Z,475
2022-11-09T13:29:12.614Z,467
2022-11-09T13:30:56.311Z,458
2022-11-09T13:32:39.997Z,448
2022-11-09T13:34:23.762Z,435
2022-11-09T13:36:07.551Z,424
2022-11-09T13:37:51.029Z,415
2022-11-09T13:39:34.893Z,407
2022-11-09T13:41:18.621Z,398
2022-11-09T13:43:02.146Z,387
2022-11-09T13:44:46.054Z,375
2022-11-09T13:46:29.787Z,360
2022-11-09T13:48:13.422Z,348
2022-11-09T13:49:56.953Z,337
2022-11-09T13:51:40.822Z,331
2022-11-09T13:53:24.509Z,319
2022-11-09T13:55:08.230Z,311
2022-11-09T13:56:51.872Z,302
2022-11-09T13:58:35.632Z,292
2022-11-09T14:00:19.358Z,288
2022-11-09T14:02:03.155Z,283
2022-11-09T14:03:46.724Z,278
2022-11-09T14:05:30.530Z,275
2022-11-09T14:07:14.148Z,269
2022-11-09T14:08:57.832Z,267
2022-11-09T14:10:41.555Z,265
2022-11-09T14:12:25.264Z,262
2022-11-09T14:14:08.964Z,260
2022-11-09T14:15:52.665Z,259
2022-11-09T14:17:36.187Z,257
2022-11-09T14:19:20.100Z,252
2022-11-09T14:21:03.767Z,248
2022-11-09T14:22:47.290Z,244
2022-11-09T14:24:31.164Z,241
2022-11-09T14:26:14.906Z,236
2022-11-09T14:29:42.281Z,219
2022-11-09T14:31:25.995Z,206
2022-11-09T14:33:09.525Z,195
2022-11-09T14:34:53.407Z,179
2022-11-09T14:36:37.086Z,167
2022-11-09T14:38:20.697Z,156
2022-11-09T14:40:04.494Z,145
2022-11-09T14:41:48.017Z,137
2022-11-09T14:43:31.910Z,131
2022-11-09T14:45:15.620Z,130
2022-11-09T14:46:59.124Z,128
2022-11-09T14:48:42.991Z,123
2022-11-09T14:50:26.753Z,118
2022-11-09T14:52:10.446Z,111
2022-11-09T14:53:54.123Z,106
2022-11-09T14:55:37.862Z,103
2022-11-09T14:57:21.467Z,102
2022-11-09T14:59:05.117Z,103
2022-11-09T15:00:48.918Z,103
2022-11-09T15:02:32.551Z,101
2022-11-09T15:04:16.374Z,100
2022-11-09T15:06:00.008Z,98
2022-11-09T15:07:43.642Z,93
2022-11-09T15:09:27.436Z,87
2022-11-09T15:11:11.181Z,79
2022-11-09T15:12:54.845Z,73
2022-11-09T15:14:38.540Z,68
2022-11-09T15:16:22.255Z,63
2022-11-09T15:18:05.906Z,58
2022-11-09T15:19:49.647Z,55
2022-11-09T15:21:33.175Z,52
2022-11-09T15:23:17.027Z,50
2022-11-09T15:25:00.745Z,47
2022-11-09T15:26:44.435Z,45
2022-11-09T15:28:28.215Z,42
2022-11-09T15:30:11.875Z,38
2022-11-09T15:31:55.379Z,37
2022-11-09T15:33:39.255Z,33
2022-11-09T15:35:22.972Z,31
2022-11-09T15:37:06.663Z,28
2022-11-09T15:38:50.417Z,25
2022-11-09T15:40:34.076Z,22
2022-11-09T15:42:17.853Z,20
2022-11-09T15:44:01.448Z,18
2022-11-09T15:45:45.220Z,16
2022-11-09T15:47:28.878Z,14
2022-11-09T15:49:12.582Z,11
2022-11-09T15:50:56.308Z,9
2022-11-09T15:52:40.051Z,9
2022-11-09T15:54:23.694Z,8
2022-11-09T15:56:07.391Z,8
2022-11-09T15:57:51.118Z,7
2022-11-09T15:59:34.634Z,6
2022-11-09T16:01:18.602Z,5
2022-11-09T16:03:02.108Z,5
2022-11-09T16:04:45.865Z,4
2022-11-09T16:06:29.545Z,4
2022-11-09T16:08:13.258Z,3
2022-11-09T16:09:56.969Z,4
2022-11-09T16:11:40.553Z,3
2022-11-09T16:13:24.295Z,4
2022-11-09T16:15:07.936Z,3
2022-11-09T16:16:51.745Z,2
2022-11-09T16:18:35.532Z,3
2022-11-09T16:20:19.108Z,3
2022-11-09T16:22:02.996Z,3
2022-11-09T16:23:46.625Z,9
2022-11-09T16:25:30.153Z,10
2022-11-09T16:27:13.852Z,9
2022-11-09T16:28:57.737Z,9
2022-11-09T16:30:41.263Z,3
2022-11-09T16:32:24.992Z,3
2022-11-09T16:34:08.729Z,3
2022-11-09T16:35:52.457Z,3
2022-11-09T16:37:36.067Z,3
2022-11-09T16:39:19.770Z,2
2022-11-09T16:41:03.470Z,3
2022-11-09T16:42:47.308Z,3
2022-11-09T16:44:30.893Z,3
2022-11-09T16:46:14.597Z,3
2022-11-09T16:47:58.339Z,5
2022-11-09T16:49:42.061Z,5
2022-11-09T16:51:25.690Z,5
2022-11-09T16:53:09.394Z,5
2022-11-09T16:54:53.100Z,5
2022-11-09T16:56:36.875Z,5
2022-11-09T16:58:20.500Z,5
2022-11-09T17:00:04.204Z,4
2022-11-09T17:01:47.904Z,5
2022-11-09T17:03:31.619Z,4
2022-11-09T17:05:15.308Z,5
2022-11-09T17:06:59.025Z,4
2022-11-09T17:08:42.715Z,5
2022-11-09T17:10:26.432Z,5
2022-11-09T17:12:10.123Z,5
2022-11-09T17:13:53.861Z,4
2022-11-09T17:15:37.533Z,5
2022-11-09T17:17:21.228Z,5
2022-11-09T17:19:04.961Z,5
2022-11-09T17:20:48.626Z,5
2022-11-09T17:22:32.404Z,5
2022-11-09T17:24:16.054Z,5
2022-11-09T17:25:59.798Z,4
2022-11-09T17:27:43.435Z,5
2022-11-09T17:29:27.141Z,5
2022-11-09T17:31:10.848Z,4
2022-11-09T17:32:54.560Z,12
2022-11-09T17:34:38.260Z,11
2022-11-09T17:36:21.949Z,11
2022-11-09T17:38:05.717Z,10
2022-11-09T17:39:49.499Z,11
2022-11-09T17:41:33.061Z,11
2022-11-09T17:43:16.809Z,10
2022-11-09T17:45:00.472Z,10
2022-11-09T17:46:44.165Z,10
2022-11-09T17:48:27.896Z,11
2022-11-09T17:50:11.577Z,10
2022-11-09T17:51:55.272Z,12
2022-11-09T17:53:38.973Z,10
2022-11-09T17:55:22.694Z,11
2022-11-09T17:57:06.388Z,10
2022-11-09T17:58:50.093Z,11
2022-11-09T18:00:33.847Z,11
2022-11-09T18:02:17.500Z,10
2022-11-09T18:04:01.271Z,10
2022-11-09T18:05:44.906Z,10
2022-11-09T18:07:28.603Z,11
2022-11-09T18:09:12.301Z,10
2022-11-09T18:10:56.018Z,11
2022-11-09T18:12:39.713Z,10
2022-11-09T18:14:23.537Z,11
2022-11-09T18:16:07.115Z,10
2022-11-09T18:17:50.874Z,10
2022-11-09T18:19:34.610Z,10
2022-11-09T18:21:18.228Z,11
2022-11-09T18:23:01.921Z,11
2022-11-09T18:24:45.634Z,2
2022-11-09T18:26:29.364Z,2
2022-11-09T18:28:13.035Z,2
2022-11-09T18:29:56.755Z,2
2022-11-09T18:31:40.449Z,1
2022-11-09T18:33:24.143Z,1
2022-11-09T18:35:07.852Z,2
2022-11-09T18:36:51.549Z,2
2022-11-09T18:38:35.274Z,2
2022-11-09T18:40:18.952Z,2
2022-11-09T18:42:02.658Z,2
2022-11-09T18:43:46.380Z,2
2022-11-09T18:45:30.082Z,2
2022-11-09T18:47:13.765Z,1
2022-11-09T18:48:57.477Z,2
2022-11-09T18:50:41.162Z,1
2022-11-09T18:52:24.862Z,2
2022-11-09T18:54:08.572Z,3
2022-11-09T18:55:52.274Z,1
2022-11-09T18:57:35.982Z,2
2022-11-09T18:59:19.684Z,2
2022-11-09T19:01:03.378Z,5
2022-11-09T19:02:47.088Z,1
2022-11-09T19:04:30.799Z,2
2022-11-09T19:06:14.484Z,1
2022-11-09T19:07:58.190Z,2
2022-11-09T19:09:41.891Z,2
2022-11-09T19:11:25.593Z,2
2022-11-09T19:13:09.386Z,3
2022-11-09T19:14:53.002Z,3
2022-11-09T19:16:36.774Z,3
2022-11-09T19:18:20.404Z,2
2022-11-09T19:20:04.146Z,2
2022-11-09T19:21:47.837Z,8
2022-11-09T19:23:31.532Z,8
2022-11-09T19:25:15.248Z,9
2022-11-09T19:26:59.002Z,8
2022-11-09T19:28:42.676Z,9
2022-11-09T19:30:26.439Z,9
2022-11-09T19:32:10.020Z,2
2022-11-09T19:33:53.727Z,2
2022-11-09T19:35:37.432Z,2
2022-11-09T19:37:21.165Z,2
2022-11-09T19:39:04.896Z,2
2022-11-09T19:40:48.631Z,1
2022-11-09T19:42:32.289Z,1
2022-11-09T19:45:59.647Z,1
2022-11-09T19:47:43.352Z,1
2022-11-09T19:49:27.062Z,1
2022-11-09T19:51:10.754Z,1
2022-11-09T19:52:54.540Z,2
2022-11-09T19:54:38.167Z,2
2022-11-09T19:56:21.866Z,2
2022-11-09T19:58:05.562Z,2
2022-11-09T19:59:49.274Z,1
2022-11-09T20:01:32.972Z,2
2022-11-09T20:03:16.671Z,2
2022-11-09T20:05:00.373Z,2
2022-11-09T20:06:44.179Z,1
2022-11-09T20:08:27.792Z,2
2022-11-09T20:10:11.496Z,1
2022-11-09T20:11:55.194Z,1
2022-11-09T20:13:38.883Z,1
2022-11-09T20:15:22.635Z,2
2022-11-09T20:17:06.279Z,2
2022-11-09T20:18:49.998Z,2
2022-11-09T20:20:33.804Z,3
2022-11-09T20:22:17.391Z,1
2022-11-09T20:24:01.103Z,2
2022-11-09T20:25:44.806Z,2
2022-11-09T20:27:28.514Z,2
2022-11-09T20:29:12.214Z,2
2022-11-09T20:30:55.912Z,2
2022-11-09T20:32:39.620Z,2
2022-11-09T20:34:23.379Z,2
2022-11-09T20:36:07.073Z,13
2022-11-09T20:37:50.735Z,12
2022-11-09T20:39:34.427Z,13
2022-11-09T20:41:18.130Z,12
2022-11-09T20:43:01.832Z,12
2022-11-09T20:44:45.537Z,12
2022-11-09T20:46:29.237Z,1
2022-11-09T20:48:12.945Z,1
2022-11-09T20:49:56.658Z,2
2022-11-09T20:51:40.348Z,1
2022-11-09T20:53:24.051Z,4
2022-11-09T20:55:07.757Z,3
2022-11-09T20:56:51.457Z,3
2022-11-09T20:58:35.155Z,4
2022-11-09T21:00:18.859Z,4
2022-11-09T21:02:02.592Z,4
2022-11-09T21:03:46.320Z,5
2022-11-09T21:05:29.971Z,5
2022-11-09T21:07:13.787Z,6
2022-11-09T21:08:57.463Z,5
2022-11-09T21:10:41.107Z,5
2022-11-09T21:12:24.849Z,5
2022-11-09T21:14:08.486Z,5
2022-11-09T21:15:52.188Z,3
2022-11-09T21:17:35.878Z,3
2022-11-09T21:19:19.595Z,3
2022-11-09T21:21:03.285Z,4
2022-11-09T21:22:46.989Z,3
2022-11-09T21:24:30.740Z,4
2022-11-09T21:26:14.393Z,4
2022-11-09T21:27:58.099Z,2
2022-11-09T21:29:41.805Z,4
2022-11-09T21:31:25.500Z,3
2022-11-09T21:33:09.202Z,3
2022-11-09T21:34:52.901Z,3
2022-11-09T21:36:36.614Z,3
2022-11-09T21:38:20.307Z,3
2022-11-09T21:40:04.080Z,3
2022-11-09T21:41:47.804Z,3
2022-11-09T21:43:31.420Z,3
2022-11-09T21:45:15.116Z,4
2022-11-09T21:46:58.823Z,4
2022-11-09T21:48:42.521Z,3
2022-11-09T21:50:26.252Z,3
2022-11-09T21:52:10.020Z,3
2022-11-09T21:53:53.636Z,3
2022-11-09T21:55:37.334Z,3
2022-11-09T21:57:21.043Z,3
2022-11-09T21:59:04.736Z,4
2022-11-09T22:00:48.462Z,3
2022-11-09T22:02:32.226Z,3
2022-11-09T22:04:15.852Z,3
2022-11-09T22:05:59.575Z,3
2022-11-09T22:07:43.263Z,3
2022-11-09T22:09:26.961Z,3
2022-11-09T22:11:10.682Z,3
2022-11-09T22:12:54.374Z,3
2022-11-09T22:14:38.088Z,3
2022-11-09T22:16:21.768Z,1
2022-11-09T22:18:05.557Z,1
2022-11-09T22:19:49.175Z,1
2022-11-09T22:21:32.874Z,1
2022-11-09T22:23:16.574Z,1
2022-11-09T22:25:00.283Z,0
2022-11-09T22:26:43.985Z,1
2022-11-09T22:28:27.683Z,1
2022-11-09T22:30:11.455Z,1
2022-11-09T22:31:55.098Z,2
2022-11-09T22:33:38.798Z,2
2022-11-09T22:35:22.495Z,1
2022-11-09T22:37:06.350Z,8
2022-11-09T22:38:49.935Z,8
2022-11-09T22:40:33.740Z,8
2022-11-09T22:42:17.389Z,8
2022-11-09T22:44:01.046Z,1
2022-11-09T22:45:44.734Z,1
2022-11-09T22:47:28.527Z,1
2022-11-09T22:49:12.190Z,1
2022-11-09T22:50:55.844Z,1
2022-11-09T22:52:39.560Z,0
2022-11-09T22:54:23.220Z,1
2022-11-09T22:56:06.968Z,1
2022-11-09T22:57:50.653Z,1
2022-11-09T22:59:34.327Z,2
2022-11-09T23:01:18.114Z,0
2022-11-09T23:03:01.789Z,1
2022-11-09T23:04:45.451Z,0
2022-11-09T23:06:29.298Z,1
2022-11-09T23:08:12.836Z,7
2022-11-09T23:09:56.580Z,7
2022-11-09T23:11:40.258Z,7
2022-11-09T23:13:23.957Z,7
2022-11-09T23:15:07.658Z,1
2022-11-09T23:16:51.470Z,1
2022-11-09T23:18:35.067Z,1
2022-11-09T23:20:18.782Z,2
2022-11-09T23:22:02.458Z,1
2022-11-09T23:23:46.243Z,1
2022-11-09T23:25:29.867Z,2
2022-11-09T23:27:13.619Z,1
2022-11-09T23:28:57.331Z,2
2022-11-09T23:30:40.972Z,1
2022-11-09T23:32:24.763Z,1
2022-11-09T23:34:08.406Z,8
2022-11-09T23:35:52.161Z,8
2022-11-09T23:37:35.821Z,8
2022-11-09T23:39:19.491Z,8
2022-11-09T23:41:03.193Z,1
2022-11-09T23:42:46.903Z,1
2022-11-09T23:44:30.725Z,0
2022-11-09T23:46:14.295Z,1
2022-11-09T23:47:58.012Z,1
2022-11-09T23:49:41.704Z,0
2022-11-09T23:51:25.409Z,1
2022-11-09T23:53:09.191Z,1
2022-11-09T23:56:36.599Z,1
2022-11-09T23:58:20.267Z,1
